Cassville, Georgia
Current Conditions -  °F | °C
As of 9:53 AM on Tuesday 21 Oct 2014 (Local Time) from KVPC Reporting Station
Clear Clear  
Wind Chill: 55°   Ceiling: Unl
Heat Index: 55°   Visibility: 10mi
Dew Point: 50°   Wind: 3mph
Humidity: 83%   Direction: NA
Pressure: 30.06"   Gusts: NA
Location:  34.24°N, 84.85°W
Report Text: KVPC 211353Z AUTO VRB03KT 10SM CLR 13/10 A3006 RMK AO2 SLP172 T01280100
Loading
Personal Weather Stations






























Interactive Weather Map
Tropical Storm Tracking
New forecast layout! Learn more

10-Day Weather Forecast

Advertisements
Track Severe Weather on mobile